EST,Max TemperatureF,Mean TemperatureF,Min TemperatureF,Max Dew PointF,MeanDew PointF,Min DewpointF,Max Humidity, Mean Humidity, Min Humidity, Max Sea Level PressureIn, Mean Sea Level PressureIn, Min Sea Level PressureIn, Max VisibilityMiles, Mean VisibilityMiles, Min VisibilityMiles, Max Wind SpeedMPH, Mean Wind SpeedMPH, Max Gust SpeedMPH,PrecipitationIn, CloudCover, Events, WindDirDegrees
2011-12-1,40,35,29,35,32,22,95,86,68,30.29,30.19,30.07,10,9,3,16,9,25,0.00,8,Rain-Snow,316
2011-12-2,32,29,26,22,20,17,78,66,57,30.42,30.37,30.29,10,10,10,12,8,17,0.00,5,,253
2011-12-3,45,38,30,43,34,25,95,90,80,30.36,30.17,30.02,10,8,2,13,9,21,0.00,6,Rain,171
2011-12-4,46,41,36,46,39,32,96,90,76,30.12,29.89,29.78,10,7,2,15,10,23,0.00,8,Rain,253
2011-12-5,34,30,27,30,26,20,86,77,71,30.37,30.31,30.23,10,10,10,15,9,22,0.00,8,,332
2011-12-6,28,27,26,24,21,19,88,79,70,30.35,30.24,30.08,10,10,5,13,5,9,0.00,8,Snow,340
2011-12-7,32,30,28,26,21,16,83,68,56,30.04,29.91,29.83,10,10,5,23,14,29,0.00,7,Snow,255
2011-12-8,32,30,27,24,16,10,74,57,43,30.05,29.98,29.90,10,10,10,30,19,39,0.00,7,,255
2011-12-9,27,24,21,14,11,8,65,58,49,30.24,30.13,30.06,10,10,5,23,16,29,0.00,8,Snow,256
2011-12-10,28,24,20,17,12,6,74,60,49,30.34,30.29,30.25,10,10,4,20,14,25,0.00,8,Snow,242
2011-12-11,48,40,31,32,29,22,82,70,49,30.25,30.20,30.15,10,10,7,21,13,34,0.00,4,,204
2011-12-12,43,40,38,37,35,33,87,82,71,30.32,30.29,30.25,10,8,4,16,10,22,0.00,8,Rain,212
2011-12-13,42,40,37,38,37,35,95,88,76,30.38,30.35,30.32,7,6,3,8,4,,0.00,8,,217
2011-12-14,43,36,30,43,36,30,99,96,89,30.29,29.98,29.59,7,4,2,9,4,,0.00,6,Rain,127
2011-12-15,48,40,31,48,37,22,99,90,68,29.95,29.61,29.46,10,7,2,31,14,43,0.00,8,Rain-Snow,258
2011-12-16,31,28,24,26,22,14,85,76,63,30.32,30.23,29.97,10,10,10,26,16,36,0.00,8,Snow,314
2011-12-17,30,24,20,28,16,10,96,68,56,30.32,30.21,30.04,10,9,1,18,7,24,0.00,6,Snow,163
2011-12-18,37,34,30,31,25,21,76,72,67,30.10,29.97,29.71,10,10,10,18,12,28,0.00,7,,222
2011-12-19,41,36,31,36,30,22,87,78,68,30.16,29.85,29.64,10,10,10,23,16,31,0.00,5,,296
2011-12-20,32,26,21,25,20,17,84,73,65,30.24,30.07,29.83,10,10,10,13,5,23,0.00,6,,167
2011-12-21,38,32,27,32,28,25,89,82,69,29.82,29.72,29.63,10,10,10,12,6,17,0.00,5,,205
2011-12-22,36,30,24,33,26,16,94,81,69,30.22,30.07,29.86,10,9,2,18,9,25,0.00,8,Rain-Snow,331
2011-12-23,28,25,22,24,20,16,95,82,64,30.27,30.22,30.18,10,8,2,12,5,,0.00,8,Snow,140
2011-12-24,35,28,23,30,26,22,93,85,75,30.26,30.15,29.96,10,10,5,14,8,21,0.00,8,Snow,162
2011-12-25,37,35,33,33,30,28,93,82,71,30.12,29.89,29.79,10,9,2,23,15,32,0.00,7,Rain-Snow,272
2011-12-26,43,38,33,31,28,24,78,68,54,30.19,30.04,29.77,10,10,10,20,11,31,0.00,4,,216
2011-12-27,41,30,20,34,28,16,90,81,68,29.81,29.63,29.51,10,9,0,25,13,38,0.00,7,Rain-Snow,278
2011-12-28,19,16,14,15,10,7,81,75,67,30.04,29.98,29.87,10,10,2,23,13,31,0.00,7,Snow,5
2011-12-29,30,24,19,29,21,12,95,82,72,29.89,29.68,29.56,10,7,2,15,11,21,0.00,8,Snow,121
2011-12-30,35,32,30,33,32,29,100,95,89,29.76,29.71,29.66,10,6,2,10,4,,0.00,7,,94
2011-12-31,37,32,29,31,29,28,96,86,70,29.95,29.88,29.76,10,10,10,9,4,,0.00,5,,117